Time;durP1;ratioP1;P1;durP2;ratioP2;P2;SDS_P1;SDS_P2;PMS_P1;PMS_P2;Temp;Humidity;BMP_temperature;BMP_pressure;BME280_temperature;BME280_humidity;BME280_pressure;Samples;Min_cycle;Max_cycle;Signal;HPM_P1;HPM_P2
2022/07/24 00:01:07;;;;;;;8.65;7.18;;;;;;;;;;5051452;28;20203;-35
2022/07/24 00:03:34;;;;;;;8.55;7.63;;;;;;;;;;5056693;28;20293;-34
2022/07/24 00:06:02;;;;;;;9.00;8.10;;;;;;;;;;5041143;28;20230;-31
2022/07/24 00:08:30;;;;;;;8.50;7.70;;;;;;;;;;5059861;28;20200;-30
2022/07/24 00:10:57;;;;;;;10.02;7.85;;;;;;;;;;5051067;28;20222;-30
2022/07/24 00:13:24;;;;;;;10.20;8.05;;;;;;;;;;5046352;28;20207;-33
2022/07/24 00:15:51;;;;;;;8.80;7.90;;;;;;;;;;5059053;28;20202;-31
2022/07/24 00:18:18;;;;;;;8.98;7.75;;;;;;;;;;5051588;28;20231;-34
2022/07/24 00:20:45;;;;;;;8.68;7.88;;;;;;;;;;5046679;28;20200;-34
2022/07/24 00:23:14;;;;;;;7.90;7.20;;;;;;;;;;5050432;28;20215;-31
2022/07/24 00:25:41;;;;;;;7.30;6.68;;;;;;;;;;5059759;28;20227;-32
2022/07/24 00:28:08;;;;;;;8.95;8.05;;;;;;;;;;5047261;28;20251;-32
2022/07/24 00:30:37;;;;;;;9.68;7.47;;;;;;;;;;5043469;28;20693;-32
2022/07/24 00:33:04;;;;;;;11.38;7.35;;;;;;;;;;5064096;28;20300;-31
2022/07/24 00:35:32;;;;;;;7.95;7.22;;;;;;;;;;5041836;28;20204;-31
2022/07/24 00:37:59;;;;;;;8.38;7.57;;;;;;;;;;5044916;28;20247;-33
2022/07/24 00:40:27;;;;;;;8.82;7.95;;;;;;;;;;5061253;28;20674;-32
2022/07/24 00:42:55;;;;;;;8.73;7.57;;;;;;;;;;5047372;28;20212;-31
2022/07/24 00:45:22;;;;;;;9.18;7.43;;;;;;;;;;5046316;28;20218;-31
2022/07/24 00:47:49;;;;;;;8.75;7.85;;;;;;;;;;5059015;28;20211;-30
2022/07/24 00:50:16;;;;;;;9.55;7.75;;;;;;;;;;5062221;28;20768;-31
2022/07/24 00:52:44;;;;;;;8.80;7.90;;;;;;;;;;5051246;28;20605;-29
2022/07/24 00:55:11;;;;;;;7.65;6.95;;;;;;;;;;5058742;28;20722;-32
2022/07/24 00:57:43;;;;;;;8.85;8.00;;;;;;;;;;5042133;28;20235;-30
2022/07/24 01:00:11;;;;;;;8.18;7.22;;;;;;;;;;5044482;28;20211;-29
2022/07/24 01:02:40;;;;;;;8.27;7.47;;;;;;;;;;5040908;28;20448;-31
2022/07/24 01:05:08;;;;;;;8.25;7.38;;;;;;;;;;5045194;28;20222;-31
2022/07/24 01:07:35;;;;;;;9.35;8.35;;;;;;;;;;5046772;28;20588;-30
2022/07/24 01:10:03;;;;;;;9.77;8.80;;;;;;;;;;5058149;28;20218;-34
2022/07/24 01:12:31;;;;;;;8.57;7.75;;;;;;;;;;5047188;28;20214;-34
2022/07/24 01:15:00;;;;;;;8.85;7.95;;;;;;;;;;5045711;28;20669;-34
2022/07/24 01:17:30;;;;;;;8.75;7.95;;;;;;;;;;5059165;28;20229;-33
2022/07/24 01:19:57;;;;;;;8.70;7.85;;;;;;;;;;5044011;28;20201;-30
2022/07/24 01:22:26;;;;;;;8.68;7.78;;;;;;;;;;5045486;28;20199;-32
2022/07/24 01:24:54;;;;;;;10.40;8.32;;;;;;;;;;5049881;28;20236;-32
2022/07/24 01:27:21;;;;;;;8.75;7.80;;;;;;;;;;5050808;28;20229;-31
2022/07/24 01:29:49;;;;;;;8.25;7.45;;;;;;;;;;5040899;28;20238;-34
2022/07/24 01:32:16;;;;;;;8.50;7.55;;;;;;;;;;5049082;28;20211;-31
2022/07/24 01:34:43;;;;;;;8.18;7.32;;;;;;;;;;5045818;28;20199;-30
2022/07/24 01:37:10;;;;;;;9.25;7.10;;;;;;;;;;5051359;28;20226;-32
2022/07/24 01:39:39;;;;;;;10.50;7.88;;;;;;;;;;5055827;28;20210;-29
2022/07/24 01:42:06;;;;;;;9.95;7.88;;;;;;;;;;5049480;28;20207;-32
2022/07/24 01:44:33;;;;;;;8.95;7.90;;;;;;;;;;5044242;28;20204;-29
2022/07/24 01:47:00;;;;;;;8.15;7.35;;;;;;;;;;5063145;28;20653;-31
2022/07/24 01:49:27;;;;;;;7.65;6.95;;;;;;;;;;5046734;28;20202;-34
2022/07/24 01:51:54;;;;;;;7.85;7.15;;;;;;;;;;5046184;28;20236;-31
2022/07/24 01:54:22;;;;;;;11.60;7.82;;;;;;;;;;5054098;28;20215;-31
2022/07/24 01:56:50;;;;;;;9.27;8.30;;;;;;;;;;5046039;28;20626;-32
2022/07/24 01:59:17;;;;;;;10.80;8.13;;;;;;;;;;5029951;28;20203;-32
2022/07/24 02:01:44;;;;;;;8.48;7.63;;;;;;;;;;5049044;28;20297;-35
2022/07/24 02:04:11;;;;;;;8.15;7.35;;;;;;;;;;5048465;28;20221;-33
2022/07/24 02:06:39;;;;;;;8.23;6.68;;;;;;;;;;5044833;28;20699;-34
2022/07/24 02:09:06;;;;;;;8.27;7.53;;;;;;;;;;5049970;28;20198;-31
2022/07/24 02:11:33;;;;;;;8.68;7.78;;;;;;;;;;5057878;28;20203;-32
2022/07/24 02:14:01;;;;;;;9.13;8.23;;;;;;;;;;5042418;28;20230;-30
2022/07/24 02:16:29;;;;;;;8.65;7.75;;;;;;;;;;5053645;28;20234;-32
2022/07/24 02:18:56;;;;;;;8.70;7.88;;;;;;;;;;5057975;28;20549;-31
2022/07/24 02:21:23;;;;;;;8.85;7.03;;;;;;;;;;5048621;28;20557;-34
2022/07/24 02:23:50;;;;;;;8.73;7.70;;;;;;;;;;5057538;28;20209;-30
2022/07/24 02:26:17;;;;;;;9.23;7.47;;;;;;;;;;5044384;28;20230;-30
2022/07/24 02:28:44;;;;;;;10.25;8.18;;;;;;;;;;5048336;28;20214;-29
2022/07/24 02:31:13;;;;;;;9.18;7.88;;;;;;;;;;5052647;28;20221;-32
2022/07/24 02:33:40;;;;;;;8.35;7.47;;;;;;;;;;5054339;28;20210;-30
2022/07/24 02:36:08;;;;;;;9.05;8.23;;;;;;;;;;5045149;28;20213;-30
2022/07/24 02:38:35;;;;;;;8.95;7.75;;;;;;;;;;5056487;28;20257;-32
2022/07/24 02:41:02;;;;;;;9.70;8.77;;;;;;;;;;5047687;28;20194;-29
2022/07/24 02:43:29;;;;;;;11.63;8.07;;;;;;;;;;5042605;28;20210;-30
2022/07/24 02:45:56;;;;;;;10.07;8.52;;;;;;;;;;5059254;28;20225;-32
2022/07/24 02:48:25;;;;;;;12.35;7.93;;;;;;;;;;5055756;28;20707;-31
2022/07/24 02:50:52;;;;;;;8.55;7.65;;;;;;;;;;5045689;28;20202;-32
2022/07/24 02:53:19;;;;;;;9.00;8.10;;;;;;;;;;5058605;28;20208;-31
2022/07/24 02:55:46;;;;;;;10.32;7.93;;;;;;;;;;5053402;28;20194;-33
2022/07/24 02:58:13;;;;;;;10.18;8.65;;;;;;;;;;5052553;28;20225;-31
2022/07/24 03:00:40;;;;;;;8.48;7.68;;;;;;;;;;5043334;28;20199;-32
2022/07/24 03:03:08;;;;;;;9.35;8.35;;;;;;;;;;5047813;28;20224;-33
2022/07/24 03:05:36;;;;;;;12.60;8.93;;;;;;;;;;5046055;28;20218;-30
2022/07/24 03:08:03;;;;;;;13.20;8.23;;;;;;;;;;5054545;28;20234;-33
2022/07/24 03:10:30;;;;;;;9.32;8.07;;;;;;;;;;5058673;28;20197;-30
2022/07/24 03:12:57;;;;;;;9.00;7.85;;;;;;;;;;5049867;28;20193;-33
2022/07/24 03:15:25;;;;;;;9.05;8.15;;;;;;;;;;5033624;28;20206;-31
2022/07/24 03:17:52;;;;;;;8.65;7.68;;;;;;;;;;5059045;28;20231;-31
2022/07/24 03:20:19;;;;;;;8.18;7.38;;;;;;;;;;5053374;28;20202;-32
2022/07/24 03:22:48;;;;;;;7.15;6.45;;;;;;;;;;5056859;28;20197;-33
2022/07/24 03:25:15;;;;;;;8.82;7.18;;;;;;;;;;5059653;28;20564;-31
2022/07/24 03:27:43;;;;;;;8.70;7.80;;;;;;;;;;5049264;28;20223;-32
2022/07/24 03:30:10;;;;;;;10.27;7.80;;;;;;;;;;5052843;28;20221;-30
2022/07/24 03:32:39;;;;;;;8.57;7.68;;;;;;;;;;5072630;28;20229;-31
2022/07/24 03:35:07;;;;;;;9.10;8.20;;;;;;;;;;5063674;28;20208;-35
2022/07/24 03:37:34;;;;;;;8.75;7.90;;;;;;;;;;5055043;28;20221;-29
2022/07/24 03:40:03;;;;;;;10.68;7.80;;;;;;;;;;5064273;28;20202;-33
2022/07/24 03:42:30;;;;;;;8.70;7.97;;;;;;;;;;5055589;28;20210;-30
2022/07/24 03:44:57;;;;;;;8.38;7.57;;;;;;;;;;5049369;28;20206;-29
2022/07/24 03:47:24;;;;;;;8.27;7.47;;;;;;;;;;5052297;28;20221;-35
2022/07/24 03:49:51;;;;;;;10.25;7.75;;;;;;;;;;5057814;28;20202;-29
2022/07/24 03:52:18;;;;;;;8.82;7.70;;;;;;;;;;5057838;28;20447;-31
2022/07/24 03:54:46;;;;;;;8.73;7.40;;;;;;;;;;5066482;28;20213;-31
2022/07/24 03:57:14;;;;;;;11.32;8.15;;;;;;;;;;5052405;28;20222;-31
2022/07/24 03:59:41;;;;;;;12.30;7.88;;;;;;;;;;5044604;28;20206;-34
2022/07/24 04:02:08;;;;;;;8.55;7.65;;;;;;;;;;5053822;28;20217;-32
2022/07/24 04:04:35;;;;;;;8.95;7.57;;;;;;;;;;5060418;28;20210;-32
2022/07/24 04:07:02;;;;;;;8.10;7.32;;;;;;;;;;5054149;28;20230;-34
2022/07/24 04:09:29;;;;;;;9.82;7.57;;;;;;;;;;5061981;28;20198;-28
2022/07/24 04:11:57;;;;;;;7.65;6.80;;;;;;;;;;5052738;28;20675;-29
2022/07/24 04:14:25;;;;;;;10.32;7.78;;;;;;;;;;5048434;28;20205;-31
2022/07/24 04:16:52;;;;;;;8.98;8.10;;;;;;;;;;5046389;28;20218;-31
2022/07/24 04:19:19;;;;;;;8.75;7.95;;;;;;;;;;5052427;28;20209;-31
2022/07/24 04:21:47;;;;;;;8.85;7.65;;;;;;;;;;5049850;28;20208;-29
2022/07/24 04:24:14;;;;;;;9.55;7.68;;;;;;;;;;5050817;28;20205;-29
2022/07/24 04:26:43;;;;;;;9.07;8.18;;;;;;;;;;5033452;28;20230;-32
2022/07/24 04:29:11;;;;;;;12.15;8.18;;;;;;;;;;5048947;28;20655;-29
2022/07/24 04:31:39;;;;;;;8.18;7.32;;;;;;;;;;5327682;22;20228;-32
2022/07/24 04:34:06;;;;;;;10.43;7.80;;;;;;;;;;5128194;27;20670;-30
2022/07/24 04:36:34;;;;;;;9.13;8.02;;;;;;;;;;5105519;28;20222;-31
2022/07/24 04:39:01;;;;;;;9.20;8.30;;;;;;;;;;5116682;27;20227;-31
2022/07/24 04:41:28;;;;;;;9.23;8.32;;;;;;;;;;5121336;27;20214;-32
2022/07/24 04:43:55;;;;;;;9.88;8.38;;;;;;;;;;5107402;28;20211;-32
2022/07/24 04:46:22;;;;;;;9.40;8.38;;;;;;;;;;5105223;27;20227;-31
2022/07/24 04:48:50;;;;;;;9.45;8.10;;;;;;;;;;5120092;27;20200;-36
2022/07/24 04:51:18;;;;;;;8.48;7.68;;;;;;;;;;5110338;27;20207;-32
2022/07/24 04:53:46;;;;;;;9.90;8.23;;;;;;;;;;5130071;27;20206;-33
2022/07/24 04:56:13;;;;;;;8.90;7.47;;;;;;;;;;5099141;27;20208;-36
2022/07/24 04:58:41;;;;;;;8.00;7.25;;;;;;;;;;5096745;28;20205;-33
2022/07/24 05:01:08;;;;;;;9.32;8.23;;;;;;;;;;5112381;27;20199;-31
2022/07/24 05:03:35;;;;;;;9.20;8.30;;;;;;;;;;5134362;27;20214;-32
2022/07/24 05:06:03;;;;;;;9.13;8.20;;;;;;;;;;5105818;27;20224;-33
2022/07/24 05:08:30;;;;;;;10.32;7.93;;;;;;;;;;5126865;27;20214;-34
2022/07/24 05:10:57;;;;;;;8.07;7.03;;;;;;;;;;5104375;27;20211;-34
2022/07/24 05:13:25;;;;;;;9.63;8.27;;;;;;;;;;5114302;28;20199;-30
2022/07/24 05:15:52;;;;;;;10.32;9.07;;;;;;;;;;5098459;27;20200;-32
2022/07/24 05:18:27;;;;;;;11.23;8.45;;;;;;;;;;5133983;27;20225;-35
2022/07/24 05:20:54;;;;;;;8.52;7.72;;;;;;;;;;5114688;27;20227;-32
2022/07/24 05:23:23;;;;;;;9.50;8.60;;;;;;;;;;5109468;27;20199;-32
2022/07/24 05:25:50;;;;;;;8.73;7.88;;;;;;;;;;5109278;27;20196;-35
2022/07/24 05:28:17;;;;;;;8.32;6.97;;;;;;;;;;5110294;27;20225;-30
2022/07/24 05:30:44;;;;;;;9.75;8.18;;;;;;;;;;5109248;27;20207;-31
2022/07/24 05:33:11;;;;;;;10.18;8.32;;;;;;;;;;5133309;27;20191;-33
2022/07/24 05:35:39;;;;;;;10.27;7.95;;;;;;;;;;5116067;27;20223;-33
2022/07/24 05:38:06;;;;;;;8.90;8.10;;;;;;;;;;5111376;27;20216;-31
2022/07/24 05:40:34;;;;;;;9.15;8.18;;;;;;;;;;5128848;27;20208;-34
2022/07/24 05:43:01;;;;;;;10.48;9.38;;;;;;;;;;5120940;27;20237;-31
2022/07/24 05:45:31;;;;;;;9.85;8.65;;;;;;;;;;5122454;27;20632;-30
2022/07/24 05:47:58;;;;;;;11.43;8.55;;;;;;;;;;5131496;27;20219;-35
2022/07/24 05:50:25;;;;;;;8.93;8.02;;;;;;;;;;5107752;27;20203;-33
2022/07/24 05:52:52;;;;;;;10.63;9.52;;;;;;;;;;5127271;27;20207;-34
2022/07/24 05:55:19;;;;;;;9.73;8.82;;;;;;;;;;5132277;27;20196;-34
2022/07/24 05:57:48;;;;;;;10.32;8.93;;;;;;;;;;5131707;27;20717;-36
2022/07/24 06:00:18;;;;;;;9.30;8.40;;;;;;;;;;5115276;27;20282;-33
2022/07/24 06:02:46;;;;;;;9.98;8.98;;;;;;;;;;5131943;27;20205;-37
2022/07/24 06:05:13;;;;;;;9.23;8.25;;;;;;;;;;5115576;27;20205;-32
2022/07/24 06:07:40;;;;;;;10.60;9.25;;;;;;;;;;5116938;27;20228;-33
2022/07/24 06:10:08;;;;;;;9.73;8.82;;;;;;;;;;5133880;27;20287;-36
2022/07/24 06:12:35;;;;;;;9.85;8.05;;;;;;;;;;5126554;27;20207;-33
2022/07/24 06:15:04;;;;;;;9.38;8.25;;;;;;;;;;5119817;28;20202;-34
2022/07/24 06:17:31;;;;;;;9.50;8.60;;;;;;;;;;5133632;27;20217;-34
2022/07/24 06:19:58;;;;;;;9.13;8.23;;;;;;;;;;5126150;27;20282;-36
2022/07/24 06:22:25;;;;;;;11.38;8.55;;;;;;;;;;5120176;27;20203;-36
2022/07/24 06:24:52;;;;;;;9.13;7.93;;;;;;;;;;5124747;27;20556;-33
2022/07/24 06:27:19;;;;;;;9.18;8.25;;;;;;;;;;5106441;28;20232;-36
2022/07/24 06:29:47;;;;;;;9.57;8.52;;;;;;;;;;5117645;27;20213;-33
2022/07/24 06:32:15;;;;;;;9.90;8.52;;;;;;;;;;5134968;27;20209;-35
2022/07/24 06:34:42;;;;;;;10.77;9.30;;;;;;;;;;5111941;28;20211;-32
2022/07/24 06:37:09;;;;;;;9.63;8.63;;;;;;;;;;5123240;27;20218;-33
2022/07/24 06:39:36;;;;;;;11.90;7.95;;;;;;;;;;5126068;27;20203;-35
2022/07/24 06:42:04;;;;;;;10.88;8.82;;;;;;;;;;5116955;28;20453;-36
2022/07/24 06:44:32;;;;;;;10.13;9.13;;;;;;;;;;5110756;27;20226;-33
2022/07/24 06:46:59;;;;;;;8.85;8.05;;;;;;;;;;5131791;27;20233;-34
2022/07/24 06:49:28;;;;;;;9.82;8.82;;;;;;;;;;5135555;27;20211;-37
2022/07/24 06:52:02;;;;;;;9.80;8.80;;;;;;;;;;5123999;27;20208;-33
2022/07/24 06:54:29;;;;;;;9.20;8.27;;;;;;;;;;5137291;27;20187;-35
2022/07/24 06:56:56;;;;;;;8.23;7.40;;;;;;;;;;5120207;27;20219;-37
2022/07/24 06:59:23;;;;;;;9.45;8.43;;;;;;;;;;5114898;27;20211;-35
2022/07/24 07:01:51;;;;;;;8.23;7.43;;;;;;;;;;5117064;27;20208;-34
2022/07/24 07:04:18;;;;;;;9.65;7.93;;;;;;;;;;5116209;27;20207;-35
2022/07/24 07:06:47;;;;;;;9.35;8.35;;;;;;;;;;5115170;27;20322;-36
2022/07/24 07:09:14;;;;;;;9.18;8.25;;;;;;;;;;5136070;27;20194;-36
2022/07/24 07:11:41;;;;;;;10.10;7.90;;;;;;;;;;5136519;27;20226;-35
2022/07/24 07:14:08;;;;;;;10.23;7.72;;;;;;;;;;5122349;27;20208;-34
2022/07/24 07:16:35;;;;;;;8.75;7.95;;;;;;;;;;5105577;27;20216;-35
2022/07/24 07:19:02;;;;;;;9.65;8.20;;;;;;;;;;5134176;27;20195;-35
2022/07/24 07:21:29;;;;;;;9.20;8.25;;;;;;;;;;5121091;27;20211;-33
2022/07/24 07:23:58;;;;;;;8.65;7.95;;;;;;;;;;5130359;27;20191;-36
2022/07/24 07:26:25;;;;;;;8.77;7.80;;;;;;;;;;5105356;27;20239;-35
2022/07/24 07:28:52;;;;;;;8.27;7.45;;;;;;;;;;5107496;28;20201;-34
2022/07/24 07:31:19;;;;;;;8.38;7.57;;;;;;;;;;5113136;27;20210;-35
2022/07/24 07:33:46;;;;;;;8.48;7.45;;;;;;;;;;5135066;27;20395;-33
2022/07/24 07:36:13;;;;;;;8.32;7.32;;;;;;;;;;5123988;27;20206;-34
2022/07/24 07:38:40;;;;;;;8.82;7.75;;;;;;;;;;5129346;27;20821;-34
2022/07/24 07:41:09;;;;;;;8.02;7.00;;;;;;;;;;5136485;27;20199;-36
2022/07/24 07:43:36;;;;;;;7.10;6.50;;;;;;;;;;5113282;27;20203;-38
2022/07/24 07:46:03;;;;;;;8.93;6.82;;;;;;;;;;5117768;27;20215;-33
2022/07/24 07:48:36;;;;;;;8.27;7.50;;;;;;;;;;5135677;27;20231;-34
2022/07/24 07:51:04;;;;;;;7.90;6.65;;;;;;;;;;5117852;27;20211;-35
2022/07/24 07:53:31;;;;;;;7.18;6.57;;;;;;;;;;5131614;27;20199;-35
2022/07/24 07:55:58;;;;;;;7.80;7.03;;;;;;;;;;5123978;27;20208;-33
2022/07/24 07:58:27;;;;;;;7.93;7.10;;;;;;;;;;5109169;28;20216;-33
2022/07/24 08:00:54;;;;;;;7.43;6.70;;;;;;;;;;5098232;27;20200;-35
2022/07/24 08:03:22;;;;;;;9.00;7.05;;;;;;;;;;5135474;27;20199;-37
2022/07/24 08:05:50;;;;;;;8.85;7.25;;;;;;;;;;5118792;27;20204;-35
2022/07/24 08:08:17;;;;;;;7.80;7.05;;;;;;;;;;5121146;27;20225;-34
2022/07/24 08:10:44;;;;;;;7.35;6.65;;;;;;;;;;5135369;27;20275;-33
2022/07/24 08:13:12;;;;;;;8.30;6.93;;;;;;;;;;5135181;27;20202;-35
2022/07/24 08:15:40;;;;;;;7.25;6.55;;;;;;;;;;5115916;27;20687;-35
2022/07/24 08:18:07;;;;;;;6.65;6.05;;;;;;;;;;5132145;27;20215;-34
2022/07/24 08:20:35;;;;;;;8.38;6.45;;;;;;;;;;5111326;27;20195;-35
2022/07/24 08:23:02;;;;;;;6.90;5.85;;;;;;;;;;5123341;27;20199;-35
2022/07/24 08:25:29;;;;;;;7.90;5.70;;;;;;;;;;5127585;27;20206;-37
2022/07/24 08:27:56;;;;;;;5.97;5.47;;;;;;;;;;5109591;27;20249;-33
2022/07/24 08:30:25;;;;;;;6.63;5.93;;;;;;;;;;5116308;27;20235;-34
2022/07/24 08:32:53;;;;;;;6.50;5.90;;;;;;;;;;5133941;27;20556;-36
2022/07/24 08:35:20;;;;;;;6.97;6.28;;;;;;;;;;5119457;27;20203;-35
2022/07/24 08:37:47;;;;;;;6.90;6.20;;;;;;;;;;5117824;27;20222;-37
2022/07/24 08:40:16;;;;;;;6.93;5.30;;;;;;;;;;5126028;27;20254;-35
2022/07/24 08:42:43;;;;;;;6.68;5.47;;;;;;;;;;5114045;28;20207;-35
2022/07/24 08:45:10;;;;;;;7.28;5.75;;;;;;;;;;5109313;27;20226;-35
2022/07/24 08:47:39;;;;;;;7.20;6.50;;;;;;;;;;5123358;27;20234;-34
2022/07/24 08:50:09;;;;;;;6.10;5.55;;;;;;;;;;5128338;27;20206;-32
2022/07/24 08:52:37;;;;;;;6.82;6.22;;;;;;;;;;5122901;27;20290;-37
2022/07/24 08:55:04;;;;;;;5.75;5.30;;;;;;;;;;5114391;27;20200;-35
2022/07/24 08:57:31;;;;;;;6.22;5.68;;;;;;;;;;5103710;28;20216;-37
2022/07/24 08:59:59;;;;;;;6.45;5.88;;;;;;;;;;5108201;27;20199;-34
2022/07/24 09:02:27;;;;;;;7.50;5.47;;;;;;;;;;5128673;27;20199;-35
2022/07/24 09:04:59;;;;;;;6.63;6.03;;;;;;;;;;5098176;28;20295;-33
2022/07/24 09:07:29;;;;;;;7.20;6.15;;;;;;;;;;5122757;27;20222;-36
2022/07/24 09:09:59;;;;;;;6.38;5.78;;;;;;;;;;5127073;27;20187;-36
2022/07/24 09:12:26;;;;;;;6.15;5.55;;;;;;;;;;5093474;28;20235;-34
2022/07/24 09:14:53;;;;;;;6.38;5.78;;;;;;;;;;5096051;27;20483;-32
2022/07/24 09:17:22;;;;;;;6.78;6.18;;;;;;;;;;5122745;27;20221;-34
2022/07/24 09:19:50;;;;;;;6.47;5.80;;;;;;;;;;5124944;27;20204;-33
2022/07/24 09:22:18;;;;;;;5.90;5.45;;;;;;;;;;5113424;27;20203;-36
2022/07/24 09:24:47;;;;;;;6.13;5.63;;;;;;;;;;5117877;27;20259;-34
2022/07/24 09:27:15;;;;;;;6.13;5.22;;;;;;;;;;5109804;28;20224;-34
2022/07/24 09:29:43;;;;;;;7.63;5.13;;;;;;;;;;5109742;28;20271;-36
2022/07/24 09:32:10;;;;;;;7.00;6.22;;;;;;;;;;5112957;27;20227;-34
2022/07/24 09:34:39;;;;;;;6.50;5.90;;;;;;;;;;5117768;27;20564;-32
2022/07/24 09:37:08;;;;;;;6.97;6.35;;;;;;;;;;5110408;27;20217;-37
2022/07/24 09:39:37;;;;;;;6.35;5.75;;;;;;;;;;5122204;27;20521;-34
2022/07/24 09:42:06;;;;;;;7.43;5.93;;;;;;;;;;5115419;27;20230;-34
2022/07/24 09:44:33;;;;;;;7.60;6.13;;;;;;;;;;5110071;28;20196;-32
2022/07/24 09:47:02;;;;;;;6.32;5.68;;;;;;;;;;5105421;27;20223;-34
2022/07/24 09:49:30;;;;;;;6.57;5.88;;;;;;;;;;5128006;27;20252;-35
2022/07/24 09:52:13;;;;;;;7.40;6.57;;;;;;;;;;5117760;27;20203;-32
2022/07/24 09:54:42;;;;;;;6.30;5.70;;;;;;;;;;5132959;27;20205;-32
2022/07/24 09:57:20;;;;;;;9.73;5.88;;;;;;;;;;5101881;27;20232;-35
2022/07/24 09:59:48;;;;;;;6.57;5.97;;;;;;;;;;5101910;28;20287;-33
2022/07/24 10:02:16;;;;;;;6.97;5.47;;;;;;;;;;5129221;27;20205;-36
2022/07/24 10:04:44;;;;;;;7.43;5.95;;;;;;;;;;5115708;27;20469;-36
2022/07/24 10:07:13;;;;;;;6.72;6.15;;;;;;;;;;5105291;27;20243;-35
2022/07/24 10:09:42;;;;;;;8.90;6.20;;;;;;;;;;5109530;27;20192;-32
2022/07/24 10:12:13;;;;;;;6.38;5.78;;;;;;;;;;5107606;28;20207;-35
2022/07/24 10:14:42;;;;;;;5.88;5.28;;;;;;;;;;5094251;28;20204;-33
2022/07/24 10:17:10;;;;;;;6.53;6.03;;;;;;;;;;5115375;28;20219;-36
2022/07/24 10:19:40;;;;;;;7.05;5.90;;;;;;;;;;5110128;28;20539;-34
2022/07/24 10:22:10;;;;;;;5.97;5.47;;;;;;;;;;5109731;28;20668;-34
2022/07/24 10:24:54;;;;;;;6.68;6.05;;;;;;;;;;5115763;27;20282;-33
2022/07/24 10:27:24;;;;;;;7.03;5.40;;;;;;;;;;5112674;28;20600;-34
2022/07/24 10:29:54;;;;;;;6.55;5.95;;;;;;;;;;5107264;28;20203;-34
2022/07/24 10:34:53;;;;;;;7.13;5.95;;;;;;;;;;5085659;28;20221;-33
2022/07/24 10:37:38;;;;;;;6.40;5.80;;;;;;;;;;5092906;28;20216;-39
2022/07/24 10:40:10;;;;;;;6.93;6.18;;;;;;;;;;5090641;28;20205;-38
2022/07/24 10:42:52;;;;;;;6.70;5.97;;;;;;;;;;5086196;28;20197;-36
2022/07/24 10:45:22;;;;;;;7.57;6.43;;;;;;;;;;5079836;28;20209;-38
2022/07/24 10:47:50;;;;;;;7.28;5.78;;;;;;;;;;5098363;28;20227;-34
2022/07/24 10:50:22;;;;;;;6.55;5.78;;;;;;;;;;5076264;28;20265;-36
2022/07/24 10:52:49;;;;;;;6.55;5.85;;;;;;;;;;5087731;28;20200;-36
2022/07/24 10:55:27;;;;;;;6.82;6.18;;;;;;;;;;5093753;28;20201;-40
2022/07/24 10:57:56;;;;;;;6.57;5.97;;;;;;;;;;5086849;28;20311;-36
2022/07/24 11:00:25;;;;;;;6.53;5.93;;;;;;;;;;5089092;28;20204;-40
2022/07/24 11:03:00;;;;;;;7.53;6.82;;;;;;;;;;5091423;28;20196;-42
2022/07/24 11:05:29;;;;;;;6.90;6.20;;;;;;;;;;5084007;28;20204;-37
2022/07/24 11:08:29;;;;;;;6.82;6.07;;;;;;;;;;5092302;28;20435;-41
2022/07/24 11:10:58;;;;;;;6.30;5.63;;;;;;;;;;5112994;28;20295;-39
2022/07/24 11:13:41;;;;;;;6.20;5.00;;;;;;;;;;5115797;28;20203;-35
2022/07/24 11:16:26;;;;;;;5.65;4.95;;;;;;;;;;5098228;28;20205;-38
2022/07/24 11:19:12;;;;;;;6.10;5.47;;;;;;;;;;5106829;28;20663;-34
2022/07/24 11:21:40;;;;;;;7.60;5.70;;;;;;;;;;5088733;28;20211;-39
2022/07/24 11:24:24;;;;;;;6.88;6.05;;;;;;;;;;5094593;28;20201;-35
2022/07/24 11:26:52;;;;;;;5.65;4.95;;;;;;;;;;5078511;28;20229;-33
2022/07/24 11:29:21;;;;;;;6.60;6.00;;;;;;;;;;5085800;28;20223;-35
2022/07/24 11:31:51;;;;;;;6.50;5.32;;;;;;;;;;5108253;28;20286;-36
2022/07/24 11:34:18;;;;;;;6.70;6.05;;;;;;;;;;5115336;28;20211;-35
2022/07/24 11:36:47;;;;;;;5.93;5.40;;;;;;;;;;5092014;28;20224;-39
2022/07/24 11:39:15;;;;;;;5.97;5.38;;;;;;;;;;5105894;28;20192;-39
2022/07/24 11:41:46;;;;;;;5.93;5.40;;;;;;;;;;5115113;28;20212;-40
2022/07/24 11:44:13;;;;;;;6.72;5.18;;;;;;;;;;5114910;28;20204;-40
2022/07/24 11:46:41;;;;;;;5.68;5.10;;;;;;;;;;5089442;28;20223;-37
2022/07/24 11:49:10;;;;;;;5.80;5.20;;;;;;;;;;5105170;28;20220;-38
2022/07/24 11:51:42;;;;;;;6.20;5.20;;;;;;;;;;5088229;28;20207;-36
2022/07/24 11:54:10;;;;;;;5.82;5.38;;;;;;;;;;5113655;28;20308;-37
2022/07/24 11:56:37;;;;;;;5.72;5.22;;;;;;;;;;5097595;28;20225;-36
2022/07/24 11:59:07;;;;;;;5.63;5.13;;;;;;;;;;5079595;28;20204;-41
2022/07/24 12:01:34;;;;;;;5.82;5.18;;;;;;;;;;5083210;28;20208;-39
2022/07/24 12:04:01;;;;;;;5.75;5.28;;;;;;;;;;5103416;28;20200;-38
2022/07/24 12:06:31;;;;;;;6.68;5.28;;;;;;;;;;5093792;28;20216;-40
2022/07/24 12:08:59;;;;;;;6.05;5.45;;;;;;;;;;5100704;28;20223;-38
2022/07/24 12:11:26;;;;;;;5.57;5.07;;;;;;;;;;5114984;28;20207;-39
2022/07/24 12:13:53;;;;;;;5.88;4.93;;;;;;;;;;5093035;28;20244;-41
2022/07/24 12:16:28;;;;;;;6.88;5.35;;;;;;;;;;5088179;28;20232;-39
2022/07/24 12:19:12;;;;;;;6.00;5.50;;;;;;;;;;5107351;28;20195;-39
2022/07/24 12:21:40;;;;;;;6.07;5.47;;;;;;;;;;5085460;28;20204;-39
2022/07/24 12:24:08;;;;;;;5.90;5.40;;;;;;;;;;5101919;28;20212;-36
2022/07/24 12:26:35;;;;;;;6.05;5.55;;;;;;;;;;5093949;28;20228;-39
2022/07/24 12:29:11;;;;;;;6.47;5.22;;;;;;;;;;5090709;28;20220;-41
2022/07/24 12:31:39;;;;;;;5.68;5.28;;;;;;;;;;5100587;28;20196;-41
2022/07/24 12:34:06;;;;;;;6.63;5.53;;;;;;;;;;5092042;28;20219;-39
2022/07/24 12:36:33;;;;;;;6.10;5.57;;;;;;;;;;5086204;28;20310;-33
2022/07/24 12:39:04;;;;;;;6.32;5.72;;;;;;;;;;5110350;28;20196;-37
2022/07/24 12:41:31;;;;;;;5.72;5.20;;;;;;;;;;5076280;28;20224;-37
2022/07/24 12:44:01;;;;;;;6.15;5.55;;;;;;;;;;5077814;28;20204;-36
2022/07/24 12:46:31;;;;;;;5.88;5.38;;;;;;;;;;5087574;28;20220;-42
2022/07/24 12:49:01;;;;;;;6.28;5.45;;;;;;;;;;5111262;28;20287;-43
2022/07/24 12:51:44;;;;;;;6.68;5.88;;;;;;;;;;5085995;28;20196;-36
2022/07/24 12:54:16;;;;;;;6.80;6.20;;;;;;;;;;5101568;28;21411;-37
2022/07/24 12:56:43;;;;;;;5.85;5.35;;;;;;;;;;5093821;28;20228;-38
2022/07/24 12:59:11;;;;;;;6.15;4.85;;;;;;;;;;5087862;28;20205;-41
2022/07/24 13:01:49;;;;;;;6.97;5.18;;;;;;;;;;5087261;28;20207;-38
2022/07/24 13:04:17;;;;;;;6.05;5.55;;;;;;;;;;5090630;28;20204;-36
2022/07/24 13:06:46;;;;;;;12.05;5.97;;;;;;;;;;5086157;28;20223;-41
2022/07/24 13:09:15;;;;;;;6.43;5.80;;;;;;;;;;5092071;28;20216;-34
2022/07/24 13:11:43;;;;;;;7.00;5.43;;;;;;;;;;5075927;28;20216;-38
2022/07/24 13:14:11;;;;;;;7.82;5.63;;;;;;;;;;5082896;28;20228;-33
2022/07/24 13:16:40;;;;;;;5.60;5.10;;;;;;;;;;5096362;28;20220;-44
2022/07/24 13:19:08;;;;;;;6.30;5.80;;;;;;;;;;5094179;28;20209;-37
2022/07/24 13:21:35;;;;;;;8.40;5.50;;;;;;;;;;5080591;28;20205;-37
2022/07/24 13:24:03;;;;;;;7.72;5.03;;;;;;;;;;5089432;28;20257;-38
2022/07/24 13:26:31;;;;;;;6.63;5.82;;;;;;;;;;5091226;28;20243;-34
2022/07/24 13:28:58;;;;;;;5.88;5.30;;;;;;;;;;5088984;28;20220;-40
2022/07/24 13:31:26;;;;;;;6.90;5.80;;;;;;;;;;5090113;28;20203;-36
2022/07/24 13:33:53;;;;;;;6.13;5.53;;;;;;;;;;5113053;28;20208;-36
2022/07/24 13:36:20;;;;;;;5.80;5.30;;;;;;;;;;5090518;28;20224;-34
2022/07/24 13:38:47;;;;;;;5.65;5.25;;;;;;;;;;5082396;28;20192;-38
2022/07/24 13:41:16;;;;;;;6.68;5.40;;;;;;;;;;5113590;28;20207;-39
2022/07/24 13:43:45;;;;;;;6.68;5.78;;;;;;;;;;5113128;28;20298;-37
2022/07/24 13:46:12;;;;;;;5.78;5.28;;;;;;;;;;5083605;28;20227;-37
2022/07/24 13:48:39;;;;;;;6.13;5.53;;;;;;;;;;5089288;28;20226;-36
2022/07/24 13:51:06;;;;;;;6.90;5.88;;;;;;;;;;5086626;28;20208;-37
2022/07/24 13:53:34;;;;;;;6.05;5.50;;;;;;;;;;5094794;28;20290;-40
2022/07/24 13:56:01;;;;;;;6.53;5.90;;;;;;;;;;5113167;28;20218;-36
2022/07/24 13:58:28;;;;;;;6.25;5.47;;;;;;;;;;5086409;28;20201;-34
2022/07/24 14:00:57;;;;;;;8.77;5.47;;;;;;;;;;5079265;28;20209;-36
2022/07/24 14:03:24;;;;;;;5.55;4.97;;;;;;;;;;5100210;28;20224;-39
2022/07/24 14:05:51;;;;;;;6.20;5.70;;;;;;;;;;5091575;28;20207;-38
2022/07/24 14:08:18;;;;;;;6.30;5.70;;;;;;;;;;5076519;28;20236;-38
2022/07/24 14:10:45;;;;;;;7.40;5.57;;;;;;;;;;5096206;28;20216;-36
2022/07/24 14:13:12;;;;;;;6.80;5.47;;;;;;;;;;5086116;28;20224;-39
2022/07/24 14:15:39;;;;;;;7.55;5.30;;;;;;;;;;5085111;28;20208;-39
2022/07/24 14:18:08;;;;;;;6.35;5.57;;;;;;;;;;5083037;28;20256;-36
2022/07/24 14:20:35;;;;;;;6.60;5.93;;;;;;;;;;5080077;28;20209;-33
2022/07/24 14:23:02;;;;;;;7.20;6.15;;;;;;;;;;5096664;28;20204;-33
2022/07/24 14:25:29;;;;;;;6.88;5.75;;;;;;;;;;5092126;28;20208;-37
2022/07/24 14:27:57;;;;;;;6.00;5.50;;;;;;;;;;5091965;28;20231;-34
2022/07/24 14:30:24;;;;;;;5.53;5.13;;;;;;;;;;5083962;28;20242;-40
2022/07/24 14:32:54;;;;;;;6.10;5.50;;;;;;;;;;5081950;28;20212;-41
2022/07/24 14:35:23;;;;;;;6.28;5.78;;;;;;;;;;5083332;28;20208;-39
2022/07/24 14:37:50;;;;;;;6.72;5.97;;;;;;;;;;5088405;28;20217;-39
2022/07/24 14:40:17;;;;;;;6.63;5.70;;;;;;;;;;5093409;28;20196;-38
2022/07/24 14:42:44;;;;;;;6.10;5.50;;;;;;;;;;5096799;28;20222;-38
2022/07/24 14:45:12;;;;;;;5.82;5.32;;;;;;;;;;5095208;28;21216;-35
2022/07/24 14:47:39;;;;;;;6.43;5.82;;;;;;;;;;5101385;28;20228;-37
2022/07/24 14:50:07;;;;;;;7.05;5.63;;;;;;;;;;5090182;28;20217;-35